createdAt,value
2019-01-27T00:01:43.536Z,4.89
2019-01-27T00:04:47.177Z,4.82
2019-01-27T00:07:50.757Z,4.81
2019-01-27T00:10:54.356Z,4.86
2019-01-27T00:13:58.100Z,4.87
2019-01-27T00:17:01.690Z,4.91
2019-01-27T00:20:06.398Z,4.88
2019-01-27T00:23:10.015Z,4.92
2019-01-27T00:26:13.624Z,4.96
2019-01-27T00:29:17.275Z,4.98
2019-01-27T00:32:20.933Z,5.00
2019-01-27T00:35:24.630Z,5.00
2019-01-27T00:38:28.315Z,5.01
2019-01-27T00:41:31.987Z,4.98
2019-01-27T00:44:35.627Z,4.99
2019-01-27T00:47:39.229Z,4.98
2019-01-27T00:50:42.859Z,5.02
2019-01-27T00:53:46.579Z,5.01
2019-01-27T00:56:50.116Z,5.06
2019-01-27T00:59:53.684Z,5.03
2019-01-27T01:02:57.315Z,5.10
2019-01-27T01:06:01.064Z,5.10
2019-01-27T01:09:06.932Z,5.11
2019-01-27T01:12:10.689Z,5.11
2019-01-27T01:15:14.353Z,5.11
2019-01-27T01:18:18.029Z,5.14
2019-01-27T01:21:21.869Z,5.21
2019-01-27T01:24:25.459Z,5.23
2019-01-27T01:27:29.177Z,5.26
2019-01-27T01:30:32.843Z,5.23
2019-01-27T01:33:36.395Z,5.27
2019-01-27T01:36:40.134Z,5.35
2019-01-27T01:39:43.685Z,5.40
2019-01-27T01:42:47.430Z,5.42
2019-01-27T01:45:51.005Z,5.42
2019-01-27T01:48:54.613Z,5.55
2019-01-27T01:51:58.295Z,5.54
2019-01-27T01:55:01.869Z,5.54
2019-01-27T01:58:05.933Z,5.64
2019-01-27T02:01:09.669Z,5.60
2019-01-27T02:04:13.366Z,5.59
2019-01-27T02:07:17.040Z,5.57
2019-01-27T02:10:21.235Z,5.58
2019-01-27T02:13:24.881Z,5.54
2019-01-27T02:16:28.578Z,5.46
2019-01-27T02:19:32.343Z,5.56
2019-01-27T02:22:35.989Z,5.56
2019-01-27T02:25:39.637Z,5.61
2019-01-27T02:28:43.361Z,5.63
2019-01-27T02:31:46.964Z,5.74
2019-01-27T02:34:50.659Z,5.76
2019-01-27T02:37:55.310Z,5.91
2019-01-27T02:40:58.976Z,5.98
2019-01-27T02:44:02.602Z,6.00
2019-01-27T02:47:06.328Z,5.96
2019-01-27T02:50:10.082Z,5.96
2019-01-27T02:53:13.535Z,5.93
2019-01-27T02:56:17.178Z,6.06
2019-01-27T02:59:20.784Z,6.13
2019-01-27T03:02:24.273Z,6.11
2019-01-27T03:05:39.786Z,6.18
2019-01-27T03:08:48.919Z,6.23
2019-01-27T03:11:52.570Z,6.27
2019-01-27T03:14:56.253Z,6.27
2019-01-27T03:17:59.870Z,6.34
2019-01-27T03:21:03.509Z,6.43
2019-01-27T03:24:07.198Z,6.38
2019-01-27T03:27:10.786Z,6.36
2019-01-27T03:30:16.713Z,6.29
2019-01-27T03:33:20.365Z,6.33
2019-01-27T03:36:23.939Z,6.31
2019-01-27T03:39:27.566Z,6.29
2019-01-27T03:42:31.132Z,6.31
2019-01-27T03:45:34.662Z,6.27
2019-01-27T03:48:38.312Z,6.21
2019-01-27T03:51:41.920Z,6.17
2019-01-27T03:54:45.612Z,6.18
2019-01-27T03:57:49.131Z,6.22
2019-01-27T04:00:52.725Z,6.21
2019-01-27T04:03:56.311Z,6.20
2019-01-27T04:06:59.998Z,6.17
2019-01-27T04:10:03.652Z,6.16
2019-01-27T04:13:07.282Z,6.09
2019-01-27T04:16:10.919Z,6.27
2019-01-27T04:19:14.540Z,6.29
2019-01-27T04:22:18.095Z,6.22
2019-01-27T04:25:21.630Z,6.14
2019-01-27T04:28:25.247Z,6.05
2019-01-27T04:31:28.835Z,5.99
2019-01-27T04:34:32.450Z,5.99
2019-01-27T04:37:36.057Z,5.97
2019-01-27T04:40:39.673Z,5.92
2019-01-27T04:43:43.249Z,5.78
2019-01-27T04:46:46.900Z,5.74
2019-01-27T04:49:50.490Z,5.70
2019-01-27T04:52:54.171Z,5.60
2019-01-27T04:55:57.770Z,5.55
2019-01-27T04:59:01.295Z,5.74
2019-01-27T05:02:04.965Z,5.62
2019-01-27T05:05:09.183Z,5.53
2019-01-27T05:08:12.806Z,5.50
2019-01-27T05:11:16.413Z,5.57
2019-01-27T05:14:20.089Z,5.63
2019-01-27T05:17:23.753Z,5.64
2019-01-27T05:20:27.493Z,5.62
2019-01-27T05:23:31.106Z,5.56
2019-01-27T05:26:34.779Z,5.57
2019-01-27T05:29:38.446Z,5.49
2019-01-27T05:32:41.968Z,5.45
2019-01-27T05:35:45.662Z,5.47
2019-01-27T05:38:49.351Z,5.50
2019-01-27T05:41:53.112Z,5.46
2019-01-27T05:44:56.805Z,5.47
2019-01-27T05:48:00.422Z,5.51
2019-01-27T05:51:04.191Z,5.49
2019-01-27T05:54:07.884Z,5.53
2019-01-27T05:57:11.538Z,5.60
2019-01-27T06:00:17.576Z,5.60
2019-01-27T06:03:21.197Z,5.64
2019-01-27T06:06:24.717Z,5.68
2019-01-27T06:09:28.402Z,5.68
2019-01-27T06:12:31.891Z,5.81
2019-01-27T06:15:35.557Z,5.82
2019-01-27T06:18:39.217Z,5.86
2019-01-27T06:21:42.806Z,5.91
2019-01-27T06:24:46.392Z,5.82
2019-01-27T06:27:49.910Z,5.85
2019-01-27T06:30:53.515Z,5.87
2019-01-27T06:34:02.516Z,5.91
2019-01-27T06:37:06.184Z,5.87
2019-01-27T06:40:09.723Z,5.97
2019-01-27T06:43:13.380Z,5.92
2019-01-27T06:46:16.922Z,5.94
2019-01-27T06:49:20.662Z,5.90
2019-01-27T06:52:24.229Z,5.90
2019-01-27T06:55:27.853Z,5.98
2019-01-27T06:58:36.748Z,5.98
2019-01-27T07:01:47.213Z,5.98
2019-01-27T07:04:57.842Z,6.02
2019-01-27T07:08:08.475Z,6.05
2019-01-27T07:13:20.080Z,6.01
2019-01-27T07:16:29.040Z,6.01
2019-01-27T07:20:10.605Z,6.04
2019-01-27T07:24:16.596Z,6.03
2019-01-27T07:27:56.357Z,6.03
2019-01-27T07:33:09.462Z,6.04
2019-01-27T07:36:18.006Z,6.04
2019-01-27T07:39:25.779Z,6.06
2019-01-27T07:42:34.469Z,6.05
2019-01-27T07:45:44.388Z,6.10
2019-01-27T07:48:52.195Z,6.13
2019-01-27T07:52:05.896Z,6.12
2019-01-27T07:55:32.570Z,6.09
2019-01-27T07:58:45.209Z,6.01
2019-01-27T08:01:53.889Z,6.16
2019-01-27T08:05:02.779Z,6.14
2019-01-27T08:08:18.606Z,6.16
2019-01-27T08:11:41.449Z,6.29
2019-01-27T08:14:49.326Z,6.29
2019-01-27T08:17:59.972Z,6.28
2019-01-27T08:21:08.563Z,6.27
2019-01-27T08:24:17.202Z,6.39
2019-01-27T08:29:26.996Z,6.42
2019-01-27T08:34:39.828Z,6.49
2019-01-27T08:37:48.313Z,6.57
2019-01-27T08:40:57.111Z,6.61
2019-01-27T08:44:13.632Z,6.64
2019-01-27T08:47:17.257Z,6.77
2019-01-27T08:50:20.809Z,6.94
2019-01-27T08:53:24.419Z,7.06
2019-01-27T08:56:28.001Z,7.23
2019-01-27T08:59:31.670Z,7.29
2019-01-27T09:02:40.432Z,7.30
2019-01-27T09:06:04.107Z,7.32
2019-01-27T09:09:15.566Z,7.28
2019-01-27T09:12:24.315Z,7.15
2019-01-27T09:15:41.890Z,7.09
2019-01-27T09:18:57.459Z,7.13
2019-01-27T09:22:07.146Z,7.14
2019-01-27T09:25:16.728Z,7.17
2019-01-27T09:28:29.211Z,7.05
2019-01-27T09:31:45.757Z,7.14
2019-01-27T09:34:53.506Z,7.19
2019-01-27T09:40:05.165Z,7.25
2019-01-27T09:43:20.214Z,7.26
2019-01-27T09:46:32.793Z,7.28
2019-01-27T09:49:45.447Z,7.32
2019-01-27T09:52:54.990Z,7.36
2019-01-27T09:56:12.006Z,7.50
2019-01-27T09:59:24.828Z,7.57
2019-01-27T10:02:34.940Z,7.58
2019-01-27T10:06:13.174Z,7.48
2019-01-27T10:09:25.783Z,7.55
2019-01-27T10:12:36.451Z,7.60
2019-01-27T10:17:47.126Z,7.69
2019-01-27T10:20:59.920Z,7.45
2019-01-27T10:24:07.782Z,7.50
2019-01-27T10:27:16.305Z,7.36
2019-01-27T10:30:26.266Z,7.32
2019-01-27T10:33:39.044Z,7.15
2019-01-27T10:36:50.987Z,7.18
2019-01-27T10:40:30.587Z,7.15
2019-01-27T10:44:09.368Z,7.12
2019-01-27T10:48:17.931Z,7.13
2019-01-27T10:51:32.506Z,7.09
2019-01-27T10:54:41.031Z,7.08
2019-01-27T10:58:25.821Z,7.10
2019-01-27T11:01:37.859Z,7.06
2019-01-27T11:04:53.893Z,7.02
2019-01-27T11:10:11.697Z,6.94
2019-01-27T11:15:25.082Z,6.90
2019-01-27T11:18:36.690Z,7.02
2019-01-27T11:21:54.187Z,7.14
2019-01-27T11:27:04.169Z,7.15
2019-01-27T11:30:14.255Z,7.59
2019-01-27T11:33:40.756Z,7.87
2019-01-27T11:36:51.362Z,7.94
2019-01-27T11:42:03.351Z,8.31
2019-01-27T11:45:18.823Z,8.84
2019-01-27T11:48:27.477Z,8.87
2019-01-27T11:51:35.221Z,8.79
2019-01-27T11:54:38.783Z,8.81
2019-01-27T11:57:42.361Z,8.74
2019-01-27T12:00:48.775Z,8.58
2019-01-27T12:03:52.325Z,8.58
2019-01-27T12:06:55.981Z,8.48
2019-01-27T12:09:59.583Z,8.53
2019-01-27T12:13:03.222Z,8.45
2019-01-27T12:16:06.736Z,8.58
2019-01-27T12:19:10.261Z,8.49
2019-01-27T12:22:13.892Z,8.59
2019-01-27T12:25:17.602Z,8.48
2019-01-27T12:28:21.192Z,8.43
2019-01-27T12:31:24.823Z,8.50
2019-01-27T12:34:30.568Z,8.48
2019-01-27T12:37:34.234Z,8.45
2019-01-27T12:40:37.978Z,8.40
2019-01-27T12:43:41.507Z,8.37
2019-01-27T12:46:45.100Z,8.49
2019-01-27T12:49:48.627Z,8.39
2019-01-27T12:52:52.485Z,8.37
2019-01-27T12:55:56.228Z,8.33
2019-01-27T12:58:59.861Z,8.28
2019-01-27T13:02:03.500Z,8.24
2019-01-27T13:05:10.388Z,8.23
2019-01-27T13:08:11.035Z,8.32
2019-01-27T13:11:14.748Z,8.39
2019-01-27T13:14:18.447Z,8.49
2019-01-27T13:17:22.122Z,8.50
2019-01-27T13:20:25.749Z,8.52
2019-01-27T13:23:29.451Z,8.42
2019-01-27T13:26:33.039Z,8.45
2019-01-27T13:29:36.631Z,8.40
2019-01-27T13:32:40.243Z,8.39
2019-01-27T13:35:43.884Z,8.33
2019-01-27T13:38:51.105Z,8.22
2019-01-27T13:41:51.201Z,8.19
2019-01-27T13:44:54.843Z,8.34
2019-01-27T13:47:59.178Z,8.29
2019-01-27T13:51:02.097Z,8.38
2019-01-27T13:54:05.732Z,8.25
2019-01-27T13:57:09.473Z,8.31
2019-01-27T14:00:17.159Z,8.17
2019-01-27T14:03:20.821Z,8.17
2019-01-27T14:06:24.421Z,8.08
2019-01-27T14:09:28.014Z,8.05
2019-01-27T14:12:31.669Z,8.00
2019-01-27T14:15:35.746Z,7.97
2019-01-27T14:18:39.495Z,8.09
2019-01-27T14:21:43.376Z,8.09
2019-01-27T14:24:47.066Z,8.18
2019-01-27T14:27:52.066Z,8.13
2019-01-27T14:30:54.742Z,8.15
2019-01-27T14:33:58.680Z,8.19
2019-01-27T14:37:02.512Z,8.27
2019-01-27T14:40:08.098Z,8.16
2019-01-27T14:43:11.897Z,8.35
2019-01-27T14:46:15.576Z,8.41
2019-01-27T14:52:50.118Z,8.38
2019-01-27T14:55:53.781Z,8.46
2019-01-27T14:58:57.639Z,8.39
2019-01-27T15:02:01.255Z,8.31
2019-01-27T15:05:05.542Z,8.34
2019-01-27T15:08:09.175Z,8.33
2019-01-27T15:11:12.778Z,8.21
2019-01-27T15:14:16.432Z,8.11
2019-01-27T15:17:19.937Z,8.01
2019-01-27T15:20:26.783Z,7.95
2019-01-27T15:23:30.391Z,7.89
2019-01-27T15:26:33.989Z,7.81
2019-01-27T15:29:37.667Z,7.78
2019-01-27T15:32:41.495Z,7.73
2019-01-27T15:35:45.132Z,7.66
2019-01-27T15:38:48.762Z,7.63
2019-01-27T15:41:52.367Z,7.60
2019-01-27T15:44:55.971Z,7.47
2019-01-27T15:47:59.719Z,7.39
2019-01-27T15:51:03.299Z,7.31
2019-01-27T15:54:06.867Z,7.22
2019-01-27T15:57:10.471Z,7.19
2019-01-27T16:00:17.390Z,7.14
2019-01-27T16:03:20.980Z,7.18
2019-01-27T16:06:28.118Z,7.16
2019-01-27T16:09:31.626Z,7.17
2019-01-27T16:12:35.171Z,7.18
2019-01-27T16:15:38.888Z,7.15
2019-01-27T16:18:42.524Z,7.11
2019-01-27T16:21:46.118Z,7.08
2019-01-27T16:24:49.661Z,7.11
2019-01-27T16:27:53.307Z,7.06
2019-01-27T16:31:02.163Z,7.14
2019-01-27T16:34:12.058Z,7.14
2019-01-27T16:37:15.868Z,7.02
2019-01-27T16:40:19.494Z,7.07
2019-01-27T16:43:23.216Z,7.03
2019-01-27T16:46:27.111Z,6.96
2019-01-27T16:49:30.778Z,6.91
2019-01-27T16:52:34.509Z,6.96
2019-01-27T16:55:38.095Z,6.94
2019-01-27T16:58:41.848Z,6.89
2019-01-27T17:01:45.562Z,6.91
2019-01-27T17:04:49.229Z,6.91
2019-01-27T17:07:52.863Z,6.88
2019-01-27T17:10:56.483Z,6.87
2019-01-27T17:14:00.240Z,6.86
2019-01-27T17:17:03.918Z,6.89
2019-01-27T17:20:10.336Z,6.88
2019-01-27T17:23:14.256Z,6.87
2019-01-27T17:26:17.867Z,6.85
2019-01-27T17:29:21.502Z,6.92
2019-01-27T17:32:25.102Z,6.87
2019-01-27T17:35:28.795Z,6.82
2019-01-27T17:38:40.208Z,6.77
2019-01-27T17:41:37.152Z,6.80
2019-01-27T17:44:40.903Z,6.80
2019-01-27T17:47:44.632Z,6.75
2019-01-27T17:50:48.194Z,6.83
2019-01-27T17:53:55.180Z,6.82
2019-01-27T17:57:03.906Z,6.77
2019-01-27T18:00:15.792Z,6.80
2019-01-27T18:03:29.626Z,6.75
2019-01-27T18:06:39.382Z,6.80
2019-01-27T18:10:02.046Z,6.85
2019-01-27T18:14:08.156Z,6.94
2019-01-27T18:17:12.103Z,7.07
2019-01-27T18:20:16.306Z,7.00
2019-01-27T18:23:21.153Z,7.04
2019-01-27T18:26:24.934Z,7.06
2019-01-27T18:29:28.685Z,7.00
2019-01-27T18:32:33.469Z,6.95
2019-01-27T18:35:37.404Z,6.89
2019-01-27T18:38:41.629Z,6.82
2019-01-27T18:41:45.298Z,6.80
2019-01-27T18:44:49.015Z,6.74
2019-01-27T18:47:52.786Z,6.70
2019-01-27T18:50:56.452Z,6.63
2019-01-27T18:56:09.592Z,6.57
2019-01-27T18:59:19.377Z,6.55
2019-01-27T19:02:27.465Z,6.51
2019-01-27T19:05:36.195Z,6.55
2019-01-27T19:08:44.900Z,6.55
2019-01-27T19:11:53.553Z,6.50
2019-01-27T19:15:05.070Z,6.40
2019-01-27T19:18:14.926Z,6.32
2019-01-27T19:21:23.599Z,6.28
2019-01-27T19:24:32.538Z,6.24
2019-01-27T19:27:40.352Z,6.25
2019-01-27T19:30:49.968Z,6.23
2019-01-27T19:34:03.725Z,6.07
2019-01-27T19:37:13.435Z,5.95
2019-01-27T19:41:24.046Z,5.97
2019-01-27T19:44:37.153Z,5.99
2019-01-27T19:47:46.261Z,6.02
2019-01-27T19:51:02.359Z,6.03
2019-01-27T19:54:11.742Z,6.18
2019-01-27T19:57:31.620Z,6.13
2019-01-27T20:01:10.719Z,6.04
2019-01-27T20:04:24.637Z,5.90
2019-01-27T20:07:38.279Z,5.91
2019-01-27T20:10:50.793Z,5.79
2019-01-27T20:16:03.916Z,5.87
2019-01-27T20:19:12.125Z,5.87
2019-01-27T20:22:19.987Z,5.80
2019-01-27T20:25:29.000Z,5.81
2019-01-27T20:29:09.749Z,5.78
2019-01-27T20:32:23.391Z,5.74
2019-01-27T20:35:33.465Z,5.76
2019-01-27T20:38:42.391Z,5.70
2019-01-27T20:41:51.958Z,5.69
2019-01-27T20:45:03.068Z,5.70
2019-01-27T20:48:17.796Z,5.84
2019-01-27T20:51:31.102Z,5.74
2019-01-27T20:54:40.855Z,5.54
2019-01-27T20:58:00.263Z,5.47
2019-01-27T21:01:43.262Z,5.29
2019-01-27T21:04:59.024Z,5.25
2019-01-27T21:08:10.919Z,5.04
2019-01-27T21:11:19.929Z,5.10
2019-01-27T21:14:29.502Z,4.84
2019-01-27T21:17:52.246Z,4.93
2019-01-27T21:20:56.298Z,4.84
2019-01-27T21:23:59.835Z,4.78
2019-01-27T21:27:06.507Z,4.93
2019-01-27T21:30:09.942Z,4.92
2019-01-27T21:33:13.886Z,4.85
2019-01-27T21:36:18.724Z,4.81
2019-01-27T21:39:23.745Z,4.70
2019-01-27T21:42:27.399Z,4.58
2019-01-27T21:45:31.091Z,4.47
2019-01-27T21:48:34.837Z,4.31
2019-01-27T21:51:38.511Z,4.24
2019-01-27T21:54:42.066Z,4.07
2019-01-27T21:57:45.842Z,4.03
2019-01-27T22:00:49.489Z,4.05
2019-01-27T22:03:53.098Z,4.05
2019-01-27T22:06:56.741Z,4.02
2019-01-27T22:10:01.494Z,4.01
2019-01-27T22:13:05.110Z,4.08
2019-01-27T22:16:09.083Z,4.08
2019-01-27T22:19:12.648Z,4.02
2019-01-27T22:22:16.281Z,3.95
2019-01-27T22:25:20.295Z,3.97
2019-01-27T22:28:23.955Z,3.95
2019-01-27T22:31:27.491Z,3.98
2019-01-27T22:34:31.162Z,3.97
2019-01-27T22:37:39.354Z,3.94
2019-01-27T22:40:43.294Z,3.99
2019-01-27T22:43:46.824Z,4.03
2019-01-27T22:46:51.168Z,3.96
2019-01-27T22:49:54.919Z,4.02
2019-01-27T22:52:58.659Z,3.89
2019-01-27T22:56:02.355Z,3.98
2019-01-27T22:59:05.878Z,3.94
2019-01-27T23:02:09.996Z,4.00
2019-01-27T23:05:13.970Z,3.94
2019-01-27T23:08:18.484Z,3.91
2019-01-27T23:11:22.220Z,3.92
2019-01-27T23:14:25.786Z,3.93
2019-01-27T23:17:29.576Z,3.83
2019-01-27T23:20:33.338Z,3.82
2019-01-27T23:23:37.012Z,3.77
2019-01-27T23:26:40.596Z,3.80
2019-01-27T23:29:44.299Z,3.83
2019-01-27T23:32:47.826Z,3.89
2019-01-27T23:35:51.471Z,3.82
2019-01-27T23:38:55.094Z,3.79
2019-01-27T23:41:58.618Z,3.76
2019-01-27T23:45:02.100Z,3.70
2019-01-27T23:48:05.699Z,3.68
2019-01-27T23:51:09.257Z,3.71
2019-01-27T23:54:12.886Z,3.74
2019-01-27T23:57:16.470Z,3.70
